Airfield :
LOGIN :

Register | Disclaimer

   EN    FR    IT 

 










Legend :    VFR   Marginal VFR   IFR   Intensive IFR   Very Intensive IFR
Visi :
Ceiling :
>= 8 km
>= 3000ft
5 to 8 km
1000 to 3000 ft
1500m to 5 km
500 to 1000 ft
800 to 1500m
200 to 500 ft
< 800m
< 200 ft
Symbols :   Thunderstorms  Fog  Heavy snow  Heavy precipitations  Wind > 20 kt
SIGMETs :     Misc.  Thunderstorms  Icing  Turbulence  Mountain Waves  Volcanic Ashes







- Airport Elevation : 116 ft
- IATA code : ISC
- Download approach charts


EGHE - Scilly Isles / St Mary's

CURRENT METAR :
  • 151320Z 02011KT 9999 BKN017 13/10 Q1011

EXPIRED METARs :
  • 151250Z 03012KT 9999 BKN015 13/10 Q1011
  • 151220Z 02012KT 9999 BKN019 13/09 Q1012
  • 151150Z 02012KT 9999 BKN019 14/10 Q1011
  • 151120Z 01011KT 9999 BKN018 13/09 Q1011
  • 151050Z 02013KT 9999 BKN021 13/09 Q1011
  • 151020Z 02015KT 9999 BKN022 13/10 Q1011

TAF TAF EGHE
Valid from the 15 at 12:00 until the 15 at 18:00 UTC


151103Z 1512/1518 03015KT 9999 SCT020
PROB30
TEMPO 1514/1518 BKN014
No reported NOTAMs for that airfield.
1 SIGMET reported for the London FIR (EGTT) :
 
Severe turbulence
EGTT SIGMET 04 VALID 151149/151530 EGRR
EGTT LONDON FIR SEV TURB FCST W OF LINE N5500 W00332 - N4957 W00215 FL240/350 MOV E 20KT WKN=



MET'MAP, your aeronautical weather chart ! - Copyright ORBIFLY December 2007 - Disclaimer

ORBIFLY MET'MAP TEAM :

Programming & Development : Alexandra Zaïnal
Concept & Development : Baudouin d'Aumeries
Co-Development & Prog : Marc-Olivier Méhu
Technical & hardware support : Manuel Goepfert

Contact : metmap@orbifly.com




SOURCES & CREDITS :

   NOAA